Time;durP1;ratioP1;P1;durP2;ratioP2;P2;SDS_P1;SDS_P2;PMS_P1;PMS_P2;Temp;Humidity;BMP_temperature;BMP_pressure;BME280_temperature;BME280_humidity;BME280_pressure;Samples;Min_cycle;Max_cycle;Signal;HPM_P1;HPM_P2
2023/03/07 00:01:41;;;;;;;31.83;16.75;;;;;;;;;;5075703;28;20365;-73
2023/03/07 00:04:26;;;;;;;35.70;16.98;;;;;;;;;;5074746;28;20457;-70
2023/03/07 00:07:12;;;;;;;32.22;16.35;;;;;;;;;;5060881;28;20045;-72
2023/03/07 00:09:58;;;;;;;34.63;15.48;;;;;;;;;;5075916;28;20111;-70
2023/03/07 00:12:43;;;;;;;32.95;14.73;;;;;;;;;;5074922;28;20052;-68
2023/03/07 00:15:29;;;;;;;27.63;15.25;;;;;;;;;;5076786;28;20021;-70
2023/03/07 00:18:15;;;;;;;27.13;13.98;;;;;;;;;;5075059;28;20131;-70
2023/03/07 00:21:04;;;;;;;23.60;13.45;;;;;;;;;;5075250;28;20502;-69
2023/03/07 00:23:51;;;;;;;23.73;12.77;;;;;;;;;;5074603;28;20421;-69
2023/03/07 00:26:38;;;;;;;26.88;12.82;;;;;;;;;;5075726;28;20031;-69
2023/03/07 00:29:24;;;;;;;20.85;12.15;;;;;;;;;;5074691;28;20039;-69
2023/03/07 00:32:09;;;;;;;23.05;12.65;;;;;;;;;;5074631;28;20031;-70
2023/03/07 00:34:56;;;;;;;24.02;11.82;;;;;;;;;;5074892;28;20389;-69
2023/03/07 00:37:42;;;;;;;25.90;13.30;;;;;;;;;;5074298;28;20508;-72
2023/03/07 00:40:27;;;;;;;22.15;12.32;;;;;;;;;;5074690;28;20024;-69
2023/03/07 00:43:13;;;;;;;21.80;13.10;;;;;;;;;;5060393;28;20021;-70
2023/03/07 00:45:58;;;;;;;23.38;13.05;;;;;;;;;;5060117;28;20176;-71
2023/03/07 00:48:44;;;;;;;24.63;12.23;;;;;;;;;;5075010;28;20020;-70
2023/03/07 00:51:30;;;;;;;23.77;12.40;;;;;;;;;;5075221;28;20016;-71
2023/03/07 00:54:15;;;;;;;19.55;11.15;;;;;;;;;;5074707;28;20020;-70
2023/03/07 00:57:01;;;;;;;23.10;11.93;;;;;;;;;;5074885;28;20346;-70
2023/03/07 00:59:46;;;;;;;21.25;12.25;;;;;;;;;;5076721;28;20028;-68
2023/03/07 01:02:32;;;;;;;23.63;13.43;;;;;;;;;;5078912;28;20101;-69
2023/03/07 01:05:17;;;;;;;26.42;14.70;;;;;;;;;;5074952;28;20338;-69
2023/03/07 01:08:03;;;;;;;28.15;15.35;;;;;;;;;;5075752;28;20072;-70
2023/03/07 01:10:49;;;;;;;32.22;17.52;;;;;;;;;;5059860;28;20020;-69
2023/03/07 01:13:35;;;;;;;34.22;17.88;;;;;;;;;;5061216;28;20335;-70
2023/03/07 01:16:21;;;;;;;31.60;16.88;;;;;;;;;;5073966;28;20100;-69
2023/03/07 01:19:11;;;;;;;28.63;16.60;;;;;;;;;;5074326;28;20113;-70
2023/03/07 01:21:56;;;;;;;31.38;16.50;;;;;;;;;;5073837;28;20023;-69
2023/03/07 01:24:42;;;;;;;32.13;17.75;;;;;;;;;;5075197;28;20021;-69
2023/03/07 01:27:27;;;;;;;34.45;18.60;;;;;;;;;;5059701;28;20048;-69
2023/03/07 01:30:13;;;;;;;33.60;17.58;;;;;;;;;;5074123;28;20332;-70
2023/03/07 01:33:00;;;;;;;32.22;16.23;;;;;;;;;;5074762;28;20071;-70
2023/03/07 01:35:46;;;;;;;32.17;16.48;;;;;;;;;;5074228;28;20021;-69
2023/03/07 01:38:33;;;;;;;29.05;15.68;;;;;;;;;;5074817;28;20036;-69
2023/03/07 01:41:18;;;;;;;28.80;15.15;;;;;;;;;;5074412;28;20020;-70
2023/03/07 01:44:12;;;;;;;27.83;15.00;;;;;;;;;;5075764;28;20425;-69
2023/03/07 01:46:59;;;;;;;35.22;14.40;;;;;;;;;;5073884;28;20021;-69
2023/03/07 01:49:45;;;;;;;29.88;14.82;;;;;;;;;;5076039;28;20028;-70
2023/03/07 01:52:32;;;;;;;25.85;14.95;;;;;;;;;;5078149;28;20030;-70
2023/03/07 01:55:20;;;;;;;27.23;14.10;;;;;;;;;;5077990;28;20056;-69
2023/03/07 01:58:07;;;;;;;27.65;14.20;;;;;;;;;;5077851;28;20021;-69
2023/03/07 02:00:53;;;;;;;28.38;14.38;;;;;;;;;;5077321;28;20483;-70
2023/03/07 02:03:44;;;;;;;27.55;14.20;;;;;;;;;;5077792;28;20131;-69
2023/03/07 02:06:32;;;;;;;27.25;13.23;;;;;;;;;;5062745;28;20045;-70
2023/03/07 02:09:19;;;;;;;24.15;13.90;;;;;;;;;;5076497;28;20103;-69
2023/03/07 02:12:05;;;;;;;26.73;14.27;;;;;;;;;;5076523;28;20032;-70
2023/03/07 02:14:51;;;;;;;25.92;14.50;;;;;;;;;;5077074;28;20085;-70
2023/03/07 02:17:37;;;;;;;24.88;13.88;;;;;;;;;;5077391;28;20017;-69
2023/03/07 02:20:28;;;;;;;28.90;15.50;;;;;;;;;;5077465;28;20375;-69
2023/03/07 02:23:28;;;;;;;30.90;16.38;;;;;;;;;;5077337;28;20048;-69
2023/03/07 02:26:20;;;;;;;30.70;16.83;;;;;;;;;;5077410;28;20032;-69
2023/03/07 02:29:06;;;;;;;39.72;21.02;;;;;;;;;;5077119;28;20092;-69
2023/03/07 02:31:51;;;;;;;38.63;20.60;;;;;;;;;;5063463;28;20017;-69
2023/03/07 02:34:37;;;;;;;35.58;19.40;;;;;;;;;;5077353;28;20092;-70
2023/03/07 02:37:26;;;;;;;40.53;20.65;;;;;;;;;;5077606;28;20334;-69
2023/03/07 02:40:13;;;;;;;35.08;19.48;;;;;;;;;;5076648;28;20024;-69
2023/03/07 02:43:04;;;;;;;35.33;19.33;;;;;;;;;;5076843;28;20111;-70
2023/03/07 02:45:50;;;;;;;33.60;19.40;;;;;;;;;;5076765;28;20031;-68
2023/03/07 02:48:35;;;;;;;38.88;19.45;;;;;;;;;;5078130;28;20020;-69
2023/03/07 02:51:21;;;;;;;34.78;18.88;;;;;;;;;;5062383;28;20166;-69
2023/03/07 02:54:07;;;;;;;39.90;20.17;;;;;;;;;;5077510;28;20494;-69
2023/03/07 02:56:53;;;;;;;40.88;19.98;;;;;;;;;;5062125;28;20051;-70
2023/03/07 02:59:38;;;;;;;34.67;19.08;;;;;;;;;;5075925;28;20086;-70
2023/03/07 03:02:24;;;;;;;42.17;19.92;;;;;;;;;;5076174;28;20024;-70
2023/03/07 03:05:10;;;;;;;35.72;18.17;;;;;;;;;;5075731;28;20036;-70
2023/03/07 03:07:56;;;;;;;36.65;19.13;;;;;;;;;;5061673;28;20076;-69
2023/03/07 03:10:41;;;;;;;38.70;18.55;;;;;;;;;;5077217;28;20032;-69
2023/03/07 03:13:27;;;;;;;40.33;19.80;;;;;;;;;;5076448;28;20025;-70
2023/03/07 03:16:13;;;;;;;35.92;18.85;;;;;;;;;;5062247;28;20020;-69
2023/03/07 03:18:59;;;;;;;39.05;19.27;;;;;;;;;;5076322;28;20094;-69
2023/03/07 03:21:44;;;;;;;39.88;20.67;;;;;;;;;;5062005;28;20032;-70
2023/03/07 03:24:30;;;;;;;35.78;18.33;;;;;;;;;;5075886;28;20052;-69
2023/03/07 03:27:16;;;;;;;34.83;18.42;;;;;;;;;;5076547;28;20321;-69
2023/03/07 03:30:04;;;;;;;36.10;19.17;;;;;;;;;;5076523;28;20084;-69
2023/03/07 03:32:50;;;;;;;35.08;17.63;;;;;;;;;;5075619;28;20024;-69
2023/03/07 03:35:38;;;;;;;27.33;15.10;;;;;;;;;;5076155;28;20016;-69
2023/03/07 03:38:24;;;;;;;24.75;13.90;;;;;;;;;;5076267;28;20475;-69
2023/03/07 03:41:11;;;;;;;21.55;12.38;;;;;;;;;;5075316;28;20103;-69
2023/03/07 03:43:56;;;;;;;22.45;13.93;;;;;;;;;;5075734;28;20052;-69
2023/03/07 03:46:42;;;;;;;24.45;12.70;;;;;;;;;;5073896;28;20041;-70
2023/03/07 03:49:27;;;;;;;22.45;12.88;;;;;;;;;;5075960;28;20047;-70
2023/03/07 03:52:13;;;;;;;24.08;12.43;;;;;;;;;;5076632;28;20012;-69
2023/03/07 03:54:58;;;;;;;22.27;12.40;;;;;;;;;;5061738;28;20038;-70
2023/03/07 03:57:44;;;;;;;21.35;12.77;;;;;;;;;;5075542;28;20020;-70
2023/03/07 04:00:30;;;;;;;21.92;12.60;;;;;;;;;;5075810;28;20028;-70
2023/03/07 04:03:15;;;;;;;20.13;12.85;;;;;;;;;;5061487;28;20043;-70
2023/03/07 04:06:02;;;;;;;25.15;13.13;;;;;;;;;;5061216;28;20051;-69
2023/03/07 04:08:48;;;;;;;22.33;13.23;;;;;;;;;;5074951;28;20086;-69
2023/03/07 04:11:33;;;;;;;22.85;13.45;;;;;;;;;;5074544;28;20391;-69
2023/03/07 04:14:19;;;;;;;21.08;13.02;;;;;;;;;;5075711;28;20024;-69
2023/03/07 04:17:04;;;;;;;25.55;13.95;;;;;;;;;;5074354;28;20483;-70
2023/03/07 04:19:50;;;;;;;27.90;14.82;;;;;;;;;;5075392;28;20040;-69
2023/03/07 04:22:36;;;;;;;35.70;19.00;;;;;;;;;;5074463;28;20035;-69
2023/03/07 04:25:21;;;;;;;41.67;22.70;;;;;;;;;;5074631;28;20024;-69
2023/03/07 04:28:07;;;;;;;40.65;22.10;;;;;;;;;;5075321;28;20031;-68
2023/03/07 04:30:53;;;;;;;46.13;22.17;;;;;;;;;;5074400;28;20089;-70
2023/03/07 04:33:38;;;;;;;41.30;22.85;;;;;;;;;;5076223;28;20017;-71
2023/03/07 04:36:24;;;;;;;39.65;22.75;;;;;;;;;;5074379;28;20452;-70
2023/03/07 04:39:09;;;;;;;36.75;20.50;;;;;;;;;;5074693;28;20020;-69
2023/03/07 04:41:55;;;;;;;37.72;20.95;;;;;;;;;;5074006;28;20127;-71
2023/03/07 04:44:41;;;;;;;38.78;20.52;;;;;;;;;;5075236;28;20099;-69
2023/03/07 04:47:26;;;;;;;37.55;20.65;;;;;;;;;;5074470;28;20162;-70
2023/03/07 04:50:12;;;;;;;37.95;20.85;;;;;;;;;;5075773;28;20016;-70
2023/03/07 04:52:57;;;;;;;37.42;20.65;;;;;;;;;;5077019;28;20028;-68
2023/03/07 04:55:43;;;;;;;41.28;21.77;;;;;;;;;;5074963;28;20024;-71
2023/03/07 04:58:29;;;;;;;47.17;20.83;;;;;;;;;;5088572;28;20055;-69
2023/03/07 05:01:15;;;;;;;37.00;19.33;;;;;;;;;;5065969;28;20082;-70
2023/03/07 05:04:01;;;;;;;32.35;19.27;;;;;;;;;;5060470;28;20400;-70
2023/03/07 05:06:46;;;;;;;42.78;21.30;;;;;;;;;;5074246;28;20449;-70
2023/03/07 05:09:32;;;;;;;42.63;20.27;;;;;;;;;;5059915;28;20020;-70
2023/03/07 05:12:17;;;;;;;36.30;19.30;;;;;;;;;;5074958;28;20025;-69
2023/03/07 05:15:03;;;;;;;43.13;18.65;;;;;;;;;;5059911;28;20009;-68
2023/03/07 05:17:49;;;;;;;38.47;18.33;;;;;;;;;;5074023;28;20349;-69
2023/03/07 05:20:34;;;;;;;34.60;17.10;;;;;;;;;;5075250;28;20063;-70
2023/03/07 05:23:20;;;;;;;30.50;17.23;;;;;;;;;;5061709;28;20444;-72
2023/03/07 05:26:05;;;;;;;37.58;18.02;;;;;;;;;;5078718;28;20032;-70
2023/03/07 05:28:51;;;;;;;41.10;19.05;;;;;;;;;;5065036;28;20391;-70
2023/03/07 05:31:37;;;;;;;41.22;21.58;;;;;;;;;;5063653;28;20024;-70
2023/03/07 05:34:22;;;;;;;47.42;21.42;;;;;;;;;;5077988;28;20082;-70
2023/03/07 05:37:08;;;;;;;49.40;20.20;;;;;;;;;;5078862;28;20026;-71
2023/03/07 05:39:53;;;;;;;38.47;18.70;;;;;;;;;;5078838;28;20020;-71
2023/03/07 05:42:39;;;;;;;36.83;19.13;;;;;;;;;;5078916;28;20116;-71
2023/03/07 05:45:25;;;;;;;46.45;19.85;;;;;;;;;;5078772;28;20070;-70
2023/03/07 05:48:10;;;;;;;38.65;18.95;;;;;;;;;;5064905;28;20074;-70
2023/03/07 05:51:00;;;;;;;40.70;19.73;;;;;;;;;;5078690;28;20475;-70
2023/03/07 05:53:45;;;;;;;35.45;18.90;;;;;;;;;;5078253;28;20038;-70
2023/03/07 05:56:31;;;;;;;42.55;18.52;;;;;;;;;;5077700;28;20021;-69
2023/03/07 05:59:16;;;;;;;37.60;18.75;;;;;;;;;;5078767;28;20515;-70
2023/03/07 06:02:02;;;;;;;40.67;17.88;;;;;;;;;;5063417;28;20025;-69
2023/03/07 06:04:48;;;;;;;33.72;17.15;;;;;;;;;;5078286;28;20021;-71
2023/03/07 06:07:34;;;;;;;39.35;17.48;;;;;;;;;;5077711;28;20599;-70
2023/03/07 06:10:20;;;;;;;43.20;18.70;;;;;;;;;;5077407;28;20035;-69
2023/03/07 06:13:05;;;;;;;38.28;18.45;;;;;;;;;;5062622;28;20094;-70
2023/03/07 06:15:52;;;;;;;45.50;23.52;;;;;;;;;;5063207;28;20021;-70
2023/03/07 06:18:37;;;;;;;48.80;25.13;;;;;;;;;;5080988;28;20059;-72
2023/03/07 06:21:23;;;;;;;47.45;24.75;;;;;;;;;;5068433;28;20047;-69
2023/03/07 06:24:08;;;;;;;50.05;27.92;;;;;;;;;;5077994;28;20020;-69
2023/03/07 06:26:54;;;;;;;50.47;28.42;;;;;;;;;;5078929;28;20155;-69
2023/03/07 06:29:39;;;;;;;50.20;27.67;;;;;;;;;;5077507;28;20013;-69
2023/03/07 06:32:25;;;;;;;50.50;26.52;;;;;;;;;;5078911;28;20086;-69
2023/03/07 06:35:11;;;;;;;47.35;24.65;;;;;;;;;;5077246;28;20027;-70
2023/03/07 06:37:56;;;;;;;48.33;23.73;;;;;;;;;;5076785;28;20218;-69
2023/03/07 06:40:42;;;;;;;47.25;23.23;;;;;;;;;;5077983;28;20020;-69
2023/03/07 06:43:27;;;;;;;42.58;21.75;;;;;;;;;;5078046;28;20025;-69
2023/03/07 06:46:13;;;;;;;41.40;20.75;;;;;;;;;;5077757;28;20094;-70
2023/03/07 06:48:59;;;;;;;39.15;21.27;;;;;;;;;;5077918;28;20024;-70
2023/03/07 06:51:45;;;;;;;38.83;20.52;;;;;;;;;;5062963;28;20021;-70
2023/03/07 06:54:30;;;;;;;43.67;20.10;;;;;;;;;;5076983;28;20020;-70
2023/03/07 06:57:16;;;;;;;36.33;19.25;;;;;;;;;;5061948;28;20016;-70
2023/03/07 07:00:04;;;;;;;36.97;18.08;;;;;;;;;;5076708;28;20094;-70
2023/03/07 07:02:49;;;;;;;38.78;19.83;;;;;;;;;;5075834;28;20025;-71
2023/03/07 07:05:35;;;;;;;34.88;19.33;;;;;;;;;;5077106;28;20024;-71
2023/03/07 07:08:20;;;;;;;44.28;18.83;;;;;;;;;;5062185;28;20036;-71
2023/03/07 07:11:06;;;;;;;72.20;21.65;;;;;;;;;;5077296;28;20017;-72
2023/03/07 07:13:52;;;;;;;56.20;19.80;;;;;;;;;;5061263;28;20104;-70
2023/03/07 07:16:37;;;;;;;35.47;17.27;;;;;;;;;;5076311;28;20413;-70
2023/03/07 07:19:25;;;;;;;46.40;17.95;;;;;;;;;;5075950;28;20024;-72
2023/03/07 07:22:11;;;;;;;33.72;15.80;;;;;;;;;;5062676;28;20493;-71
2023/03/07 07:24:56;;;;;;;31.75;14.95;;;;;;;;;;5060943;28;20364;-69
2023/03/07 07:27:42;;;;;;;27.15;14.25;;;;;;;;;;5076514;28;20342;-70
2023/03/07 07:30:27;;;;;;;23.00;12.95;;;;;;;;;;5076159;28;20008;-68
2023/03/07 07:33:13;;;;;;;21.67;12.95;;;;;;;;;;5074726;28;20013;-71
2023/03/07 07:35:58;;;;;;;28.42;15.15;;;;;;;;;;5075991;28;20016;-70
2023/03/07 07:38:44;;;;;;;23.60;15.43;;;;;;;;;;5075735;28;20035;-70
2023/03/07 07:41:30;;;;;;;28.08;15.85;;;;;;;;;;5075236;28;20032;-70
2023/03/07 07:44:16;;;;;;;27.33;14.15;;;;;;;;;;5075186;28;20024;-69
2023/03/07 07:47:02;;;;;;;65.78;37.25;;;;;;;;;;5075560;28;20372;-70
2023/03/07 07:49:47;;;;;;;57.45;33.22;;;;;;;;;;5075323;28;20025;-69
2023/03/07 07:52:33;;;;;;;30.77;16.02;;;;;;;;;;5076342;28;20115;-70
2023/03/07 07:55:18;;;;;;;26.25;14.82;;;;;;;;;;5075403;28;20022;-70
2023/03/07 07:58:04;;;;;;;39.53;16.67;;;;;;;;;;5061248;28;20013;-72
2023/03/07 08:00:50;;;;;;;28.27;15.27;;;;;;;;;;5060680;28;20126;-70
2023/03/07 08:03:35;;;;;;;28.50;16.08;;;;;;;;;;5075769;28;20036;-71
2023/03/07 08:06:26;;;;;;;29.55;15.20;;;;;;;;;;5074406;28;20052;-71
2023/03/07 08:09:13;;;;;;;24.85;14.10;;;;;;;;;;5074868;28;20080;-71
2023/03/07 08:11:59;;;;;;;24.45;13.18;;;;;;;;;;5074482;28;20039;-70
2023/03/07 08:14:45;;;;;;;22.88;12.85;;;;;;;;;;5075469;28;20028;-70
2023/03/07 08:17:30;;;;;;;16.05;11.27;;;;;;;;;;5075716;28;20024;-71
2023/03/07 08:20:16;;;;;;;21.50;11.07;;;;;;;;;;5074858;28;20032;-71
2023/03/07 08:23:02;;;;;;;16.83;11.15;;;;;;;;;;5075446;28;20021;-71
2023/03/07 08:25:50;;;;;;;16.63;10.85;;;;;;;;;;5075692;28;20024;-71
2023/03/07 08:28:36;;;;;;;16.17;10.57;;;;;;;;;;5074558;28;20375;-71
2023/03/07 08:31:22;;;;;;;16.42;11.30;;;;;;;;;;5075169;28;20012;-71
2023/03/07 08:34:08;;;;;;;16.08;9.82;;;;;;;;;;5074388;28;20027;-72
2023/03/07 08:36:54;;;;;;;14.77;10.13;;;;;;;;;;5074611;28;20028;-71
2023/03/07 08:39:39;;;;;;;18.27;10.95;;;;;;;;;;5060881;28;20020;-72
2023/03/07 08:42:25;;;;;;;16.77;11.07;;;;;;;;;;5077628;28;20025;-72
2023/03/07 08:45:11;;;;;;;16.70;11.00;;;;;;;;;;5074186;28;20021;-71
2023/03/07 08:47:56;;;;;;;21.02;10.98;;;;;;;;;;5074343;28;20028;-71
2023/03/07 08:50:42;;;;;;;15.18;10.40;;;;;;;;;;5074072;28;20028;-72
2023/03/07 08:53:28;;;;;;;15.75;9.95;;;;;;;;;;5060218;28;20021;-73
2023/03/07 08:56:15;;;;;;;14.77;9.77;;;;;;;;;;5075106;28;20100;-72
2023/03/07 08:59:00;;;;;;;12.60;8.57;;;;;;;;;;5074949;28;20056;-71
2023/03/07 09:01:46;;;;;;;11.95;7.88;;;;;;;;;;5074278;28;20031;-72
2023/03/07 09:04:32;;;;;;;12.18;8.13;;;;;;;;;;5074472;28;20086;-71
2023/03/07 09:07:18;;;;;;;12.50;8.45;;;;;;;;;;5074305;28;20048;-71
2023/03/07 09:10:05;;;;;;;11.88;7.85;;;;;;;;;;5075697;28;20048;-70
2023/03/07 09:12:50;;;;;;;18.10;9.48;;;;;;;;;;5058677;28;20036;-71
2023/03/07 09:15:39;;;;;;;15.13;9.10;;;;;;;;;;5060358;28;20118;-71
2023/03/07 09:18:25;;;;;;;17.92;9.32;;;;;;;;;;5074420;28;20020;-71
2023/03/07 09:21:10;;;;;;;16.92;9.82;;;;;;;;;;5073934;28;20020;-71
2023/03/07 09:23:56;;;;;;;13.98;9.70;;;;;;;;;;5073893;28;20021;-71
2023/03/07 09:26:41;;;;;;;12.73;8.82;;;;;;;;;;5074345;28;20016;-72
2023/03/07 09:29:27;;;;;;;14.32;9.07;;;;;;;;;;5074349;28;20094;-71
2023/03/07 09:32:13;;;;;;;13.63;9.55;;;;;;;;;;5074361;28;20031;-72
2023/03/07 09:34:58;;;;;;;24.77;11.07;;;;;;;;;;5060244;28;20455;-71
2023/03/07 09:37:44;;;;;;;12.23;8.27;;;;;;;;;;5059679;28;20052;-72
2023/03/07 09:40:29;;;;;;;13.55;8.15;;;;;;;;;;5073182;28;20091;-70
2023/03/07 09:43:17;;;;;;;10.80;7.80;;;;;;;;;;5074535;28;20024;-70
2023/03/07 09:46:06;;;;;;;14.23;8.20;;;;;;;;;;5073866;28;20024;-72
2023/03/07 09:48:59;;;;;;;10.70;6.80;;;;;;;;;;5060744;28;20095;-71
2023/03/07 09:51:47;;;;;;;8.75;5.72;;;;;;;;;;5074616;28;20013;-72
2023/03/07 09:54:41;;;;;;;7.90;5.03;;;;;;;;;;5073660;28;20012;-71
2023/03/07 09:57:31;;;;;;;7.75;4.78;;;;;;;;;;5074394;28;20028;-71
2023/03/07 10:00:28;;;;;;;8.82;5.70;;;;;;;;;;5073811;28;20028;-70
2023/03/07 10:03:23;;;;;;;8.90;5.30;;;;;;;;;;5073971;28;20020;-71
2023/03/07 10:06:13;;;;;;;8.18;4.97;;;;;;;;;;5073513;28;20526;-70
2023/03/07 10:09:00;;;;;;;8.43;4.80;;;;;;;;;;5078712;28;20103;-72
2023/03/07 10:12:01;;;;;;;8.95;4.65;;;;;;;;;;5072795;28;20171;-71
2023/03/07 10:14:58;;;;;;;8.95;5.00;;;;;;;;;;5066107;28;20024;-71
2023/03/07 10:17:50;;;;;;;7.57;5.20;;;;;;;;;;5078302;28;20083;-72
2023/03/07 10:20:39;;;;;;;7.22;4.68;;;;;;;;;;5078402;28;20036;-72
2023/03/07 10:23:43;;;;;;;8.07;4.88;;;;;;;;;;5078514;28;20042;-71
2023/03/07 10:26:33;;;;;;;8.07;4.63;;;;;;;;;;5075669;28;20421;-70
2023/03/07 10:29:21;;;;;;;7.47;4.63;;;;;;;;;;5077302;28;20020;-71
2023/03/07 10:32:15;;;;;;;8.75;5.20;;;;;;;;;;5077357;28;20423;-72
2023/03/07 10:35:10;;;;;;;9.38;5.50;;;;;;;;;;5076156;28;20463;-71
2023/03/07 10:37:58;;;;;;;9.85;5.28;;;;;;;;;;5075985;28;20171;-72
2023/03/07 10:40:49;;;;;;;8.07;5.47;;;;;;;;;;5077233;28;20033;-73
2023/03/07 10:43:34;;;;;;;9.38;4.93;;;;;;;;;;5077625;28;20086;-72
2023/03/07 10:46:26;;;;;;;12.45;5.13;;;;;;;;;;5077193;28;20360;-73
2023/03/07 10:49:20;;;;;;;25.52;8.20;;;;;;;;;;5076574;28;20419;-71
2023/03/07 10:52:15;;;;;;;8.73;5.07;;;;;;;;;;5077183;28;20091;-73
2023/03/07 10:55:19;;;;;;;8.65;4.95;;;;;;;;;;5077513;28;20017;-72
2023/03/07 10:58:11;;;;;;;6.50;4.68;;;;;;;;;;5064195;28;20028;-71
2023/03/07 11:00:57;;;;;;;8.63;5.00;;;;;;;;;;5075649;28;20047;-73
2023/03/07 11:03:46;;;;;;;7.05;5.00;;;;;;;;;;5077431;28;20028;-70
2023/03/07 11:06:38;;;;;;;10.48;5.30;;;;;;;;;;5076435;28;20052;-71
2023/03/07 11:09:27;;;;;;;8.80;4.75;;;;;;;;;;5076152;28;20503;-71
2023/03/07 11:12:18;;;;;;;7.03;4.22;;;;;;;;;;5076395;28;20392;-71
2023/03/07 11:15:10;;;;;;;5.45;4.07;;;;;;;;;;5075390;28;20389;-71
2023/03/07 11:17:56;;;;;;;10.45;3.90;;;;;;;;;;5077138;28;20111;-71
2023/03/07 11:20:47;;;;;;;9.32;4.30;;;;;;;;;;5061851;28;20115;-72
2023/03/07 11:23:32;;;;;;;7.90;3.55;;;;;;;;;;5076676;28;20024;-72
2023/03/07 11:26:21;;;;;;;8.38;4.18;;;;;;;;;;5061785;28;20040;-72
2023/03/07 11:29:11;;;;;;;9.35;3.83;;;;;;;;;;5076642;28;20017;-72
2023/03/07 11:32:15;;;;;;;7.78;4.07;;;;;;;;;;5076064;28;20013;-72
2023/03/07 11:35:15;;;;;;;6.25;3.67;;;;;;;;;;5062432;28;20409;-73
2023/03/07 11:38:28;;;;;;;7.38;4.20;;;;;;;;;;5074816;28;20115;-71
2023/03/07 11:41:16;;;;;;;8.73;5.32;;;;;;;;;;5075490;28;20107;-72
2023/03/07 11:44:11;;;;;;;8.00;5.43;;;;;;;;;;5061696;28;20437;-72
2023/03/07 11:46:57;;;;;;;7.13;4.03;;;;;;;;;;5061734;28;20020;-72
2023/03/07 11:49:52;;;;;;;6.43;4.18;;;;;;;;;;5062437;28;20024;-72
2023/03/07 11:52:37;;;;;;;7.03;4.05;;;;;;;;;;5061459;28;20020;-72
2023/03/07 11:55:26;;;;;;;9.10;3.90;;;;;;;;;;5075781;28;20100;-73
2023/03/07 11:58:11;;;;;;;7.35;3.88;;;;;;;;;;5061800;28;20024;-72
2023/03/07 12:01:03;;;;;;;7.93;3.60;;;;;;;;;;5062532;28;20024;-72
2023/03/07 12:04:10;;;;;;;6.30;4.40;;;;;;;;;;5062784;28;20070;-72
2023/03/07 12:07:16;;;;;;;6.20;3.63;;;;;;;;;;5074648;28;20048;-71
2023/03/07 12:10:25;;;;;;;6.57;4.43;;;;;;;;;;5061789;28;20036;-72
2023/03/07 12:13:25;;;;;;;6.50;3.83;;;;;;;;;;5060122;28;20016;-72
2023/03/07 12:16:11;;;;;;;5.85;3.80;;;;;;;;;;5075287;28;20417;-72
2023/03/07 12:19:02;;;;;;;10.30;4.45;;;;;;;;;;5075319;28;20059;-71
2023/03/07 12:22:08;;;;;;;8.70;4.13;;;;;;;;;;5060679;28;20362;-72
2023/03/07 12:25:00;;;;;;;6.15;3.88;;;;;;;;;;5076283;28;20024;-73
2023/03/07 12:28:01;;;;;;;6.85;3.50;;;;;;;;;;5075192;28;20029;-71
2023/03/07 12:30:47;;;;;;;5.30;3.20;;;;;;;;;;5075502;28;20099;-73
2023/03/07 12:33:38;;;;;;;6.57;3.88;;;;;;;;;;5073912;28;20028;-71
2023/03/07 12:36:27;;;;;;;7.65;3.03;;;;;;;;;;5061214;28;20024;-72
2023/03/07 12:39:15;;;;;;;6.35;3.53;;;;;;;;;;5074772;28;20104;-71
2023/03/07 12:42:01;;;;;;;8.55;3.83;;;;;;;;;;5074177;28;20017;-73
2023/03/07 12:45:02;;;;;;;5.40;3.10;;;;;;;;;;5075705;28;20076;-71
2023/03/07 12:47:57;;;;;;;4.80;3.33;;;;;;;;;;5074294;28;20024;-72
2023/03/07 12:50:49;;;;;;;7.70;3.10;;;;;;;;;;5061038;28;20020;-72
2023/03/07 12:53:54;;;;;;;6.22;3.03;;;;;;;;;;5074922;28;20444;-72
2023/03/07 12:56:52;;;;;;;9.43;3.47;;;;;;;;;;5060668;28;20345;-71
2023/03/07 12:59:39;;;;;;;5.28;3.40;;;;;;;;;;5063239;28;20021;-71
2023/03/07 13:02:28;;;;;;;4.50;2.70;;;;;;;;;;5075890;28;20023;-70
2023/03/07 13:05:17;;;;;;;9.05;5.53;;;;;;;;;;5075403;28;20078;-70
2023/03/07 13:08:04;;;;;;;4.55;2.70;;;;;;;;;;5093000;28;20032;-70
2023/03/07 13:10:50;;;;;;;4.93;2.42;;;;;;;;;;5058835;28;20012;-70
2023/03/07 13:13:42;;;;;;;5.15;2.75;;;;;;;;;;5073937;28;20142;-72
2023/03/07 13:16:33;;;;;;;4.18;3.00;;;;;;;;;;5075082;28;20020;-71
2023/03/07 13:19:35;;;;;;;5.63;3.83;;;;;;;;;;5095524;28;20494;-72
2023/03/07 13:22:20;;;;;;;8.13;3.47;;;;;;;;;;5092389;28;20062;-71
2023/03/07 13:25:18;;;;;;;5.72;3.72;;;;;;;;;;5093981;28;20106;-71
2023/03/07 13:28:05;;;;;;;5.25;3.05;;;;;;;;;;5094828;28;20455;-71
2023/03/07 13:31:11;;;;;;;4.93;2.83;;;;;;;;;;5094562;28;20024;-71
2023/03/07 13:34:16;;;;;;;11.35;4.13;;;;;;;;;;5080624;28;20016;-72
2023/03/07 13:37:22;;;;;;;6.40;3.15;;;;;;;;;;5092865;28;20460;-73
2023/03/07 13:40:26;;;;;;;3.67;2.72;;;;;;;;;;5077174;28;20028;-72
2023/03/07 13:43:17;;;;;;;6.38;3.15;;;;;;;;;;5093342;28;20028;-71
2023/03/07 13:46:23;;;;;;;3.67;2.58;;;;;;;;;;5098030;28;20032;-71
2023/03/07 13:49:09;;;;;;;7.82;3.60;;;;;;;;;;5098310;28;20089;-73
2023/03/07 13:52:13;;;;;;;3.50;2.70;;;;;;;;;;5097989;28;20016;-72
2023/03/07 13:55:00;;;;;;;5.13;3.05;;;;;;;;;;5097636;28;20067;-71
2023/03/07 13:57:46;;;;;;;8.65;3.38;;;;;;;;;;5097517;28;20401;-73
2023/03/07 14:00:36;;;;;;;4.95;2.88;;;;;;;;;;5097922;28;20026;-72
2023/03/07 14:03:24;;;;;;;4.78;2.67;;;;;;;;;;5097652;28;20034;-72
2023/03/07 14:06:13;;;;;;;6.70;2.97;;;;;;;;;;5102401;28;20051;-70
2023/03/07 14:09:00;;;;;;;5.63;3.10;;;;;;;;;;5117736;28;20444;-71
2023/03/07 14:12:08;;;;;;;4.30;2.95;;;;;;;;;;5117617;28;20023;-71
2023/03/07 14:15:22;;;;;;;5.28;3.30;;;;;;;;;;5117857;28;20069;-71
2023/03/07 14:18:09;;;;;;;7.22;3.60;;;;;;;;;;5118274;28;20023;-71
2023/03/07 14:21:01;;;;;;;5.65;3.22;;;;;;;;;;5117515;28;20129;-71
2023/03/07 14:23:55;;;;;;;6.55;3.35;;;;;;;;;;5118270;28;20470;-71
2023/03/07 14:26:43;;;;;;;5.60;3.30;;;;;;;;;;5102551;28;20023;-70
2023/03/07 14:29:29;;;;;;;5.57;3.35;;;;;;;;;;5117127;28;20112;-71
2023/03/07 14:32:21;;;;;;;5.07;2.80;;;;;;;;;;5118921;27;20019;-71
2023/03/07 14:35:07;;;;;;;5.13;3.55;;;;;;;;;;5117035;28;20373;-71
2023/03/07 14:37:53;;;;;;;5.85;3.42;;;;;;;;;;5117198;28;20339;-70
2023/03/07 14:40:45;;;;;;;10.07;3.80;;;;;;;;;;5117804;28;20419;-71
2023/03/07 14:43:51;;;;;;;7.57;3.80;;;;;;;;;;5117103;28;20024;-70
2023/03/07 14:46:40;;;;;;;7.05;3.78;;;;;;;;;;5118579;27;20035;-72
2023/03/07 14:49:31;;;;;;;5.82;3.42;;;;;;;;;;5101773;28;20027;-70
2023/03/07 14:52:19;;;;;;;7.97;4.00;;;;;;;;;;5116395;28;20363;-70
2023/03/07 14:55:05;;;;;;;11.55;3.72;;;;;;;;;;5117356;28;20519;-72
2023/03/07 14:57:53;;;;;;;11.68;4.38;;;;;;;;;;5102473;28;20050;-72
2023/03/07 15:00:39;;;;;;;7.07;4.22;;;;;;;;;;5117268;28;20504;-71
2023/03/07 15:03:24;;;;;;;8.93;3.67;;;;;;;;;;5101686;28;20444;-71
2023/03/07 15:06:15;;;;;;;5.63;3.83;;;;;;;;;;5101697;28;20128;-71
2023/03/07 15:09:02;;;;;;;7.40;3.78;;;;;;;;;;5116078;28;20011;-71
2023/03/07 15:11:53;;;;;;;7.07;4.22;;;;;;;;;;5116642;28;20164;-71
2023/03/07 15:14:44;;;;;;;8.20;3.92;;;;;;;;;;5101207;28;20544;-70
2023/03/07 15:17:35;;;;;;;14.68;4.40;;;;;;;;;;5115957;28;20030;-71
2023/03/07 15:20:23;;;;;;;6.88;4.20;;;;;;;;;;5116464;28;20050;-71
2023/03/07 15:23:16;;;;;;;7.32;3.88;;;;;;;;;;5115583;28;20435;-72
2023/03/07 15:26:09;;;;;;;8.02;3.92;;;;;;;;;;5115897;28;20116;-70
2023/03/07 15:28:59;;;;;;;7.90;4.05;;;;;;;;;;5115267;28;20071;-71
2023/03/07 15:31:56;;;;;;;6.07;3.70;;;;;;;;;;5116836;28;20012;-71
2023/03/07 15:34:42;;;;;;;12.57;5.00;;;;;;;;;;5116246;28;20023;-70
2023/03/07 15:37:31;;;;;;;7.53;4.82;;;;;;;;;;5100961;28;20030;-71
2023/03/07 15:40:32;;;;;;;6.85;4.65;;;;;;;;;;5115065;28;20033;-72
2023/03/07 15:43:21;;;;;;;6.65;4.55;;;;;;;;;;5123505;27;20027;-71
2023/03/07 15:46:14;;;;;;;8.15;4.50;;;;;;;;;;5107724;28;20458;-71
2023/03/07 15:48:59;;;;;;;6.05;4.30;;;;;;;;;;5117262;27;20034;-72
2023/03/07 15:51:45;;;;;;;19.45;5.43;;;;;;;;;;5101185;28;20035;-71
2023/03/07 15:54:35;;;;;;;9.75;5.07;;;;;;;;;;5116220;28;20024;-71
2023/03/07 15:57:24;;;;;;;9.90;5.25;;;;;;;;;;5115778;28;20452;-71
2023/03/07 16:00:28;;;;;;;21.10;11.02;;;;;;;;;;5115618;28;20359;-71
2023/03/07 16:03:27;;;;;;;14.88;8.20;;;;;;;;;;5115968;28;20168;-71
2023/03/07 16:06:35;;;;;;;20.25;8.02;;;;;;;;;;5104050;28;20050;-70
2023/03/07 16:09:21;;;;;;;19.40;6.28;;;;;;;;;;5114781;28;20047;-72
2023/03/07 16:12:11;;;;;;;15.93;6.57;;;;;;;;;;5115946;28;20092;-70
2023/03/07 16:14:57;;;;;;;14.90;5.72;;;;;;;;;;5115210;28;20089;-70
2023/03/07 16:17:43;;;;;;;15.95;5.95;;;;;;;;;;5099796;28;20035;-70
2023/03/07 16:20:29;;;;;;;14.82;6.28;;;;;;;;;;5114628;28;20092;-71
2023/03/07 16:23:14;;;;;;;14.95;5.95;;;;;;;;;;5114825;28;20458;-71
2023/03/07 16:26:02;;;;;;;10.18;6.22;;;;;;;;;;5115785;28;20498;-71
2023/03/07 16:28:49;;;;;;;13.13;8.10;;;;;;;;;;5100969;28;20034;-71
2023/03/07 16:31:34;;;;;;;13.38;7.63;;;;;;;;;;5100181;28;20019;-71